Time;durP1;ratioP1;P1;durP2;ratioP2;P2;SDS_P1;SDS_P2;PMS_P1;PMS_P2;Temp;Humidity;BMP_temperature;BMP_pressure;BME280_temperature;BME280_humidity;BME280_pressure;Samples;Min_cycle;Max_cycle;Signal;HPM_P1;HPM_P2
2022/06/14 00:03:18;;;;;;;;;;;;;;;28.31;35.80;100317.91;5057139;28;844;-44
2022/06/14 00:05:44;;;;;;;;;;;;;;;28.35;35.47;100316.50;5040185;28;1010;-43
2022/06/14 00:08:09;;;;;;;;;;;;;;;28.35;35.37;100318.38;5057510;28;1037;-43
2022/06/14 00:10:35;;;;;;;;;;;;;;;28.30;35.16;100312.72;5056962;28;1190;-44
2022/06/14 00:13:00;;;;;;;;;;;;;;;28.30;35.39;100318.97;5057730;28;1036;-43
2022/06/14 00:15:25;;;;;;;;;;;;;;;28.35;35.26;100321.09;5056849;28;1139;-43
2022/06/14 00:17:51;;;;;;;;;;;;;;;28.39;35.35;100311.53;5057471;28;1898;-43
2022/06/14 00:20:16;;;;;;;;;;;;;;;28.37;35.35;100316.31;5057539;28;977;-43
2022/06/14 00:22:42;;;;;;;;;;;;;;;28.34;35.18;100309.41;5057684;28;993;-44
2022/06/14 00:25:07;;;;;;;;;;;;;;;28.35;34.48;100311.09;5057715;28;1060;-43
2022/06/14 00:27:32;;;;;;;;;;;;;;;28.34;35.04;100316.72;5057014;28;1097;-43
2022/06/14 00:29:58;;;;;;;;;;;;;;;28.34;35.20;100317.53;5038905;28;900;-43
2022/06/14 00:32:23;;;;;;;;;;;;;;;28.41;35.17;100314.03;5057530;28;1005;-43
2022/06/14 00:34:48;;;;;;;;;;;;;;;28.37;34.78;100313.59;5054961;28;1160;-43
2022/06/14 00:37:15;;;;;;;;;;;;;;;28.40;34.78;100313.19;5057174;28;1894;-44
2022/06/14 00:39:40;;;;;;;;;;;;;;;28.40;34.72;100315.91;5057059;28;1251;-43
2022/06/14 00:42:06;;;;;;;;;;;;;;;28.34;34.10;100314.84;5056531;28;946;-43
2022/06/14 00:44:31;;;;;;;;;;;;;;;28.39;34.87;100313.41;5056855;28;1029;-43
2022/06/14 00:47:04;;;;;;;;;;;;;;;28.37;35.07;100321.72;5052346;28;1344;-43
2022/06/14 00:49:46;;;;;;;;;;;;;;;28.33;35.04;100318.59;5056515;28;1047;-43
2022/06/14 00:52:25;;;;;;;;;;;;;;;28.30;35.15;100313.56;5036969;28;1129;-42
2022/06/14 00:54:52;;;;;;;;;;;;;;;28.38;34.99;100312.56;5038622;28;1017;-43
2022/06/14 00:57:19;;;;;;;;;;;;;;;28.40;34.96;100307.78;5038640;28;1906;-43
2022/06/14 00:59:46;;;;;;;;;;;;;;;28.39;35.30;100308.00;5056286;28;1009;-44
2022/06/14 01:02:16;;;;;;;;;;;;;;;28.41;35.29;100303.22;5039096;28;1105;-42
2022/06/14 01:04:42;;;;;;;;;;;;;;;28.43;35.32;100310.09;5038820;28;1140;-43
2022/06/14 01:07:07;;;;;;;;;;;;;;;28.44;35.44;100305.53;5056833;28;1116;-43
2022/06/14 01:10:02;;;;;;;;;;;;;;;28.44;35.03;100310.94;5056634;28;1073;-43
2022/06/14 01:12:29;;;;;;;;;;;;;;;28.44;35.10;100306.38;5031793;28;1369;-43
2022/06/14 01:15:04;;;;;;;;;;;;;;;28.38;35.35;100303.63;5057174;28;884;-45
2022/06/14 01:17:33;;;;;;;;;;;;;;;27.84;35.27;100220.38;5038394;28;1959;-43
2022/06/14 01:19:59;;;;;;;;;;;;;;;28.41;35.17;100297.81;5038302;28;871;-43
2022/06/14 01:22:25;;;;;;;;;;;;;;;28.46;35.05;100303.44;5056260;28;949;-43
2022/06/14 01:24:50;;;;;;;;;;;;;;;28.48;34.81;100304.06;5053133;28;926;-43
2022/06/14 01:27:16;;;;;;;;;;;;;;;28.38;34.92;100304.44;5056375;28;958;-43
2022/06/14 01:29:44;;;;;;;;;;;;;;;28.47;35.13;100294.28;5055660;28;1128;-42
2022/06/14 01:32:10;;;;;;;;;;;;;;;28.44;34.90;100300.94;5038176;28;865;-43
2022/06/14 01:34:37;;;;;;;;;;;;;;;28.38;35.22;100309.84;5038127;28;1148;-43
2022/06/14 01:37:02;;;;;;;;;;;;;;;28.42;34.95;100318.41;5037795;28;1948;-43
2022/06/14 01:39:28;;;;;;;;;;;;;;;28.37;35.35;100313.59;5037894;28;1005;-44
2022/06/14 01:42:08;;;;;;;;;;;;;;;28.32;35.08;100316.91;5037999;28;998;-43
2022/06/14 01:44:52;;;;;;;;;;;;;;;28.33;34.89;100315.88;5055606;28;1017;-43
2022/06/14 01:47:20;;;;;;;;;;;;;;;28.32;34.87;100318.75;5055351;28;1113;-43
2022/06/14 01:52:38;;;;;;;;;;;;;;;28.31;35.07;100317.91;5056009;28;1037;-42
2022/06/14 01:55:18;;;;;;;;;;;;;;;28.29;34.96;100319.16;5038212;28;1215;-42
2022/06/14 01:57:44;;;;;;;;;;;;;;;28.28;34.92;100314.81;5038001;28;1906;-43
2022/06/14 02:00:09;;;;;;;;;;;;;;;28.26;35.20;100319.56;5055273;28;961;-44
2022/06/14 02:02:37;;;;;;;;;;;;;;;28.33;35.08;100306.91;5060203;28;1006;-43
2022/06/14 02:05:21;;;;;;;;;;;;;;;28.34;35.33;100316.72;5062675;28;1057;-43
2022/06/14 02:07:49;;;;;;;;;;;;;;;28.27;35.32;100316.66;5062591;28;1005;-43
2022/06/14 02:10:32;;;;;;;;;;;;;;;28.30;35.17;100315.41;5061427;28;1070;-43
2022/06/14 02:13:04;;;;;;;;;;;;;;;28.33;35.04;100310.47;5056579;28;1508;-43
2022/06/14 02:15:29;;;;;;;;;;;;;;;28.38;34.96;100311.75;5062271;28;1027;-43
2022/06/14 02:18:06;;;;;;;;;;;;;;;28.29;35.10;100308.34;5062246;28;1893;-42
2022/06/14 02:20:33;;;;;;;;;;;;;;;28.31;35.22;100312.50;5062202;28;1002;-43
2022/06/14 02:23:00;;;;;;;;;;;;;;;28.38;35.16;100314.44;5044239;28;1145;-43
2022/06/14 02:25:46;;;;;;;;;;;;;;;28.35;35.23;100315.66;5044508;28;1069;-42
2022/06/14 02:28:17;;;;;;;;;;;;;;;28.43;34.80;100312.78;5061940;28;1227;-44
2022/06/14 02:30:55;;;;;;;;;;;;;;;28.46;34.96;100311.56;5044100;28;1088;-43
2022/06/14 02:33:20;;;;;;;;;;;;;;;28.41;35.16;100317.56;5062311;28;1264;-43
2022/06/14 02:35:57;;;;;;;;;;;;;;;28.41;34.71;100322.16;5061957;28;993;-43
2022/06/14 02:38:46;;;;;;;;;;;;;;;28.40;34.94;100321.31;5044271;28;1890;-43
2022/06/14 02:41:16;;;;;;;;;;;;;;;28.37;35.00;100321.72;5051444;28;1358;-43
2022/06/14 02:43:47;;;;;;;;;;;;;;;28.38;34.69;100330.69;5043853;28;1076;-43
2022/06/14 02:46:14;;;;;;;;;;;;;;;28.43;34.38;100320.91;5060577;28;1064;-43
2022/06/14 02:48:39;;;;;;;;;;;;;;;28.41;34.59;100322.16;5041315;28;1431;-42
2022/06/14 02:51:11;;;;;;;;;;;;;;;28.39;34.70;100318.81;5062386;28;1045;-43
2022/06/14 02:53:41;;;;;;;;;;;;;;;28.44;34.86;100321.75;5062160;28;1199;-43
2022/06/14 02:56:09;;;;;;;;;;;;;;;28.39;34.88;100324.22;5044135;28;1089;-43
2022/06/14 02:58:46;;;;;;;;;;;;;;;28.37;35.34;100327.13;5060865;28;1973;-43
2022/06/14 03:01:13;;;;;;;;;;;;;;;28.34;34.98;100333.75;5058073;28;1052;-43
2022/06/14 03:03:41;;;;;;;;;;;;;;;28.40;35.22;100342.97;5044224;28;991;-43
2022/06/14 03:06:09;;;;;;;;;;;;;;;28.42;35.00;100340.03;5043443;28;1010;-44
2022/06/14 03:08:36;;;;;;;;;;;;;;;28.46;34.92;100338.63;5043982;28;1049;-43
2022/06/14 03:11:16;;;;;;;;;;;;;;;28.41;34.91;100336.50;5044139;28;1010;-42
2022/06/14 03:13:42;;;;;;;;;;;;;;;28.44;34.96;100330.72;5052977;28;1001;-43
2022/06/14 03:16:10;;;;;;;;;;;;;;;28.48;34.63;100331.97;5058480;28;1210;-42
2022/06/14 03:18:44;;;;;;;;;;;;;;;28.07;35.95;100327.38;5039846;28;1903;-43
2022/06/14 03:21:14;;;;;;;;;;;;;;;27.90;37.25;100326.84;5058444;28;1068;-43
2022/06/14 03:23:39;;;;;;;;;;;;;;;27.59;39.15;100337.84;5035785;28;1029;-43
2022/06/14 03:26:09;;;;;;;;;;;;;;;27.77;37.41;100335.72;5058617;28;986;-43
2022/06/14 03:28:41;;;;;;;;;;;;;;;27.77;36.68;100333.00;5040891;28;1109;-43
2022/06/14 03:31:25;;;;;;;;;;;;;;;27.75;36.79;100333.22;5058491;28;1068;-43
2022/06/14 03:34:09;;;;;;;;;;;;;;;27.66;37.08;100346.00;5056199;28;958;-43
2022/06/14 03:36:35;;;;;;;;;;;;;;;27.68;37.53;100333.16;5040521;28;1183;-43
2022/06/14 03:39:03;;;;;;;;;;;;;;;27.69;36.92;100342.13;5039648;28;1906;-43
2022/06/14 03:41:30;;;;;;;;;;;;;;;27.67;37.42;100344.16;5057874;28;1151;-43
2022/06/14 03:43:56;;;;;;;;;;;;;;;27.63;38.12;100332.88;5057446;28;997;-43
2022/06/14 03:46:22;;;;;;;;;;;;;;;27.73;37.80;100333.41;5058418;28;1024;-44
2022/06/14 03:48:51;;;;;;;;;;;;;;;27.70;37.93;100338.38;5057885;28;1120;-43
2022/06/14 03:51:23;;;;;;;;;;;;;;;27.72;37.62;100347.13;5058648;28;997;-44
2022/06/14 03:54:07;;;;;;;;;;;;;;;27.73;37.31;100341.53;5040280;28;1038;-43
2022/06/14 03:56:32;;;;;;;;;;;;;;;27.92;37.56;100341.84;5058302;28;982;-43
2022/06/14 03:58:58;;;;;;;;;;;;;;;27.93;36.81;100342.66;5056343;28;1919;-42
2022/06/14 04:01:36;;;;;;;;;;;;;;;27.93;36.89;100337.25;5057684;28;1041;-44
2022/06/14 04:04:36;;;;;;;;;;;;;;;27.60;35.49;100339.53;5039685;28;1204;-44
2022/06/14 04:07:06;;;;;;;;;;;;;;;27.60;37.51;100341.38;4983042;28;1204;-44
2022/06/14 04:09:34;;;;;;;;;;;;;;;27.66;37.85;100337.91;5028631;28;1037;-44
2022/06/14 04:12:08;;;;;;;;;;;;;;;27.80;37.94;100340.72;5057788;28;1001;-43
2022/06/14 04:15:03;;;;;;;;;;;;;;;27.95;37.73;100343.31;5057289;28;1132;-43
2022/06/14 04:17:28;;;;;;;;;;;;;;;24.96;44.85;100348.69;5039886;28;1949;-45
2022/06/14 04:19:57;;;;;;;;;;;;;;;22.07;53.81;100353.69;5057995;28;1001;-45
2022/06/14 04:22:35;;;;;;;;;;;;;;;21.76;56.74;100346.91;5057278;28;1037;-45
2022/06/14 04:25:03;;;;;;;;;;;;;;;21.68;56.41;100354.88;5033359;28;1085;-45
2022/06/14 04:27:28;;;;;;;;;;;;;;;20.68;59.06;100358.28;5057955;28;1152;-44
2022/06/14 04:30:09;;;;;;;;;;;;;;;19.95;61.42;100357.13;5056415;28;1425;-43
2022/06/14 04:33:07;;;;;;;;;;;;;;;19.70;61.96;100362.09;5047018;28;1224;-47
2022/06/14 04:35:34;;;;;;;;;;;;;;;19.69;61.73;100360.41;5014988;28;1384;-44
2022/06/14 04:38:09;;;;;;;;;;;;;;;19.87;61.78;100365.84;5038894;28;1894;-48
2022/06/14 04:40:36;;;;;;;;;;;;;;;19.73;61.33;100369.81;5037204;28;1053;-43
2022/06/14 04:43:15;;;;;;;;;;;;;;;19.15;62.25;100369.66;5054684;28;1060;-43
2022/06/14 04:45:43;;;;;;;;;;;;;;;19.06;61.89;100368.66;5050119;28;1039;-43
2022/06/14 04:48:18;;;;;;;;;;;;;;;18.94;61.99;100375.06;5037339;28;1168;-43
2022/06/14 04:50:49;;;;;;;;;;;;;;;18.79;62.72;100380.81;5039386;28;1065;-43
2022/06/14 04:53:16;;;;;;;;;;;;;;;19.10;64.31;100385.25;5031177;28;986;-43
2022/06/14 04:56:01;;;;;;;;;;;;;;;22.05;53.57;100388.66;5051843;28;1029;-43
2022/06/14 04:58:26;;;;;;;;;;;;;;;23.93;49.14;100385.13;5034641;28;1985;-43
2022/06/14 05:01:15;;;;;;;;;;;;;;;20.89;55.00;100389.25;5056329;28;940;-43
2022/06/14 05:03:49;;;;;;;;;;;;;;;18.81;61.35;100381.50;5015815;28;1071;-44
2022/06/14 05:06:19;;;;;;;;;;;;;;;18.68;62.20;100383.56;5034025;28;1026;-43
2022/06/14 05:08:49;;;;;;;;;;;;;;;18.47;62.97;100392.44;5037656;28;1009;-43
2022/06/14 05:11:26;;;;;;;;;;;;;;;18.37;63.64;100389.75;5056287;28;1188;-43
2022/06/14 05:14:05;;;;;;;;;;;;;;;18.34;63.74;100396.19;5055425;28;1101;-43
2022/06/14 05:16:32;;;;;;;;;;;;;;;20.13;61.12;100394.66;5038901;28;997;-44
2022/06/14 05:19:32;;;;;;;;;;;;;;;22.68;51.22;100396.53;5056199;28;1906;-43
2022/06/14 05:22:00;;;;;;;;;;;;;;;23.90;47.41;100396.22;4993686;28;1170;-43
2022/06/14 05:24:25;;;;;;;;;;;;;;;24.29;47.13;100413.50;5044299;28;1109;-43
2022/06/14 05:26:54;;;;;;;;;;;;;;;19.19;59.60;100410.22;5038523;28;954;-44
2022/06/14 05:29:19;;;;;;;;;;;;;;;18.41;60.69;100409.81;5055342;28;1025;-43
2022/06/14 05:32:03;;;;;;;;;;;;;;;19.90;59.34;100413.59;5056197;28;981;-44
2022/06/14 05:34:28;;;;;;;;;;;;;;;21.14;51.44;100405.59;5049867;28;800;-43
2022/06/14 05:37:18;;;;;;;;;;;;;;;18.93;60.25;100411.56;5055262;28;1960;-43
2022/06/14 05:39:52;;;;;;;;;;;;;;;21.87;53.48;100412.81;5031703;28;1046;-43
2022/06/14 05:42:19;;;;;;;;;;;;;;;23.54;50.87;100411.66;5051962;28;1121;-42
2022/06/14 05:44:45;;;;;;;;;;;;;;;24.32;45.63;100419.34;5054507;28;1247;-43
2022/06/14 05:47:14;;;;;;;;;;;;;;;24.57;45.28;100419.25;5027907;28;1120;-43
2022/06/14 05:49:42;;;;;;;;;;;;;;;25.01;47.01;100422.47;5037806;28;1065;-44
2022/06/14 05:52:08;;;;;;;;;;;;;;;25.14;43.98;100423.75;5037319;28;1137;-43
2022/06/14 05:54:35;;;;;;;;;;;;;;;25.40;43.17;100426.09;5055939;28;1171;-43
2022/06/14 05:57:04;;;;;;;;;;;;;;;25.53;42.83;100419.25;5055762;28;1906;-43
2022/06/14 05:59:33;;;;;;;;;;;;;;;25.82;42.17;100425.81;5054367;28;1267;-43
2022/06/14 06:02:04;;;;;;;;;;;;;;;25.79;44.44;100421.59;5053143;28;1231;-43
2022/06/14 06:04:34;;;;;;;;;;;;;;;26.17;42.02;100436.09;5037368;28;1054;-42
2022/06/14 06:07:00;;;;;;;;;;;;;;;26.10;42.14;100427.06;5036524;28;1283;-43
2022/06/14 06:09:30;;;;;;;;;;;;;;;26.47;41.42;100427.19;5055079;28;1156;-44
2022/06/14 06:11:57;;;;;;;;;;;;;;;26.74;40.93;100432.94;5036883;28;1073;-43
2022/06/14 06:14:42;;;;;;;;;;;;;;;26.57;42.16;100425.06;5051013;28;1218;-43
2022/06/14 06:17:15;;;;;;;;;;;;;;;26.85;41.67;100428.91;5037671;28;1902;-44
2022/06/14 06:19:59;;;;;;;;;;;;;;;26.76;41.04;100430.88;5037571;28;1101;-43
2022/06/14 06:22:25;;;;;;;;;;;;;;;26.71;41.36;100439.53;5055455;28;1116;-43
2022/06/14 06:24:52;;;;;;;;;;;;;;;27.02;38.76;100434.97;5025794;28;1228;-43
2022/06/14 06:27:17;;;;;;;;;;;;;;;26.90;40.53;100438.13;5049732;28;1005;-43
2022/06/14 06:29:47;;;;;;;;;;;;;;;27.07;40.19;100443.34;5033506;28;1033;-44
2022/06/14 06:32:12;;;;;;;;;;;;;;;27.31;38.69;100448.56;5031975;28;1014;-43
2022/06/14 06:34:37;;;;;;;;;;;;;;;27.26;40.39;100451.81;5054342;28;1197;-44
2022/06/14 06:37:11;;;;;;;;;;;;;;;27.41;39.50;100448.25;5050319;28;1972;-44
2022/06/14 06:39:39;;;;;;;;;;;;;;;27.34;39.93;100456.28;5054973;28;1182;-44
2022/06/14 06:42:23;;;;;;;;;;;;;;;27.37;40.84;100450.50;5056173;28;1175;-43
2022/06/14 06:45:08;;;;;;;;;;;;;;;27.50;39.83;100453.34;5055023;28;962;-45
2022/06/14 06:47:36;;;;;;;;;;;;;;;27.49;39.99;100451.66;5053813;28;1149;-43
2022/06/14 06:50:04;;;;;;;;;;;;;;;27.55;41.59;100451.91;5057627;28;890;-43
2022/06/14 06:53:02;;;;;;;;;;;;;;;27.71;39.42;100448.97;5059246;28;895;-43
2022/06/14 06:55:38;;;;;;;;;;;;;;;27.57;40.12;100452.56;5004336;28;1183;-44
2022/06/14 06:58:06;;;;;;;;;;;;;;;27.64;41.80;100448.06;5037658;28;1973;-44
2022/06/14 07:00:31;;;;;;;;;;;;;;;27.76;39.38;100448.38;5062046;28;958;-43
2022/06/14 07:03:20;;;;;;;;;;;;;;;27.79;40.22;100456.13;5041129;28;1037;-43
2022/06/14 07:05:47;;;;;;;;;;;;;;;27.67;40.93;100452.22;5052280;28;1141;-43
2022/06/14 07:08:14;;;;;;;;;;;;;;;27.87;39.57;100453.28;5041230;28;1073;-43
2022/06/14 07:10:40;;;;;;;;;;;;;;;27.78;40.40;100451.72;5058682;28;1060;-43
2022/06/14 07:13:21;;;;;;;;;;;;;;;27.89;40.02;100452.25;5040366;28;1010;-44
2022/06/14 07:15:51;;;;;;;;;;;;;;;27.90;39.77;100452.03;5058837;28;983;-43
2022/06/14 07:18:18;;;;;;;;;;;;;;;27.97;41.31;100458.34;5057544;28;1882;-44
2022/06/14 07:20:48;;;;;;;;;;;;;;;23.41;53.70;100451.59;5040682;28;1073;-43
2022/06/14 07:23:19;;;;;;;;;;;;;;;22.29;56.52;100451.41;5058485;28;1285;-43
2022/06/14 07:25:53;;;;;;;;;;;;;;;21.68;57.64;100443.22;5058490;28;1239;-43
2022/06/14 07:28:24;;;;;;;;;;;;;;;24.38;51.75;100454.63;5039932;28;1041;-43
2022/06/14 07:30:53;;;;;;;;;;;;;;;23.24;52.70;100459.56;5039961;28;896;-43
2022/06/14 07:33:18;;;;;;;;;;;;;;;21.79;57.13;100460.94;5058005;28;1544;-42
2022/06/14 07:35:50;;;;;;;;;;;;;;;24.44;52.02;100462.84;5040260;28;1120;-44
2022/06/14 07:38:15;;;;;;;;;;;;;;;23.40;52.63;100461.50;5058778;28;1977;-43
2022/06/14 07:40:40;;;;;;;;;;;;;;;21.88;56.91;100462.69;5058143;28;1049;-43
2022/06/14 07:43:08;;;;;;;;;;;;;;;23.53;55.38;100482.50;5057059;28;986;-44
2022/06/14 07:45:40;;;;;;;;;;;;;;;24.39;49.04;100475.94;5040432;28;1001;-44
2022/06/14 07:48:11;;;;;;;;;;;;;;;21.89;56.70;100467.03;5058218;28;1041;-45
2022/06/14 07:50:43;;;;;;;;;;;;;;;24.39;51.76;100473.25;5040842;28;982;-44
2022/06/14 07:53:39;;;;;;;;;;;;;;;23.20;52.99;100472.50;5056625;28;1047;-44
2022/06/14 07:56:05;;;;;;;;;;;;;;;23.11;57.23;100474.31;5039725;28;1413;-43
2022/06/14 07:58:56;;;;;;;;;;;;;;;25.52;49.21;100469.63;5056864;28;1902;-44
2022/06/14 08:01:26;;;;;;;;;;;;;;;22.06;57.26;100472.50;5051800;28;1037;-44
2022/06/14 08:03:53;;;;;;;;;;;;;;;24.68;50.83;100469.16;5038809;28;970;-44
2022/06/14 08:06:21;;;;;;;;;;;;;;;23.04;53.65;100470.59;5041707;28;975;-44
2022/06/14 08:08:46;;;;;;;;;;;;;;;22.75;59.73;100471.81;5039273;28;924;-44
2022/06/14 08:11:22;;;;;;;;;;;;;;;25.36;48.63;100475.09;5039398;28;1025;-43
2022/06/14 08:13:53;;;;;;;;;;;;;;;22.30;56.01;100471.03;5043159;28;1125;-44
2022/06/14 08:16:19;;;;;;;;;;;;;;;23.92;53.86;100464.06;5036506;28;994;-44
2022/06/14 08:18:46;;;;;;;;;;;;;;;24.44;49.64;100468.22;5040091;28;1902;-43
2022/06/14 08:21:13;;;;;;;;;;;;;;;22.31;58.05;100472.69;5039728;28;1057;-43
2022/06/14 08:23:38;;;;;;;;;;;;;;;25.14;49.74;100474.88;5040372;28;1002;-43
2022/06/14 08:26:05;;;;;;;;;;;;;;;23.22;53.34;100475.84;5057312;28;1013;-43
2022/06/14 08:28:36;;;;;;;;;;;;;;;21.89;57.46;100472.38;5056716;28;1024;-43
2022/06/14 08:31:08;;;;;;;;;;;;;;;22.37;60.51;100472.91;5056987;28;1052;-43
2022/06/14 08:33:35;;;;;;;;;;;;;;;25.28;49.66;100470.59;5039263;28;930;-43
2022/06/14 08:36:07;;;;;;;;;;;;;;;22.11;56.31;100473.75;5056497;28;1508;-43
2022/06/14 08:38:35;;;;;;;;;;;;;;;22.87;57.92;100472.38;5039165;28;1972;-44
2022/06/14 08:41:01;;;;;;;;;;;;;;;25.27;49.08;100469.78;5057124;28;1211;-43
2022/06/14 08:43:32;;;;;;;;;;;;;;;22.26;58.45;100471.34;5056755;28;970;-43
2022/06/14 08:46:06;;;;;;;;;;;;;;;24.90;50.35;100473.94;5038538;28;1073;-45
2022/06/14 08:48:32;;;;;;;;;;;;;;;22.67;54.49;100474.47;5056591;28;1157;-43
2022/06/14 08:51:05;;;;;;;;;;;;;;;22.85;58.77;100475.22;5056345;28;1132;-43
2022/06/14 08:53:39;;;;;;;;;;;;;;;25.43;48.94;100478.75;5056649;28;977;-43
2022/06/14 08:56:07;;;;;;;;;;;;;;;22.03;56.76;100476.34;5038840;28;1220;-43
2022/06/14 08:58:33;;;;;;;;;;;;;;;23.91;54.20;100479.34;5053014;28;1984;-43
2022/06/14 09:01:00;;;;;;;;;;;;;;;23.89;51.09;100485.91;5056178;28;1002;-44
2022/06/14 09:03:35;;;;;;;;;;;;;;;21.74;57.63;100490.78;5038986;28;1323;-44
2022/06/14 09:06:19;;;;;;;;;;;;;;;24.29;52.90;100486.88;5038560;28;1412;-43
2022/06/14 09:08:44;;;;;;;;;;;;;;;22.91;54.23;100489.81;5056313;28;993;-43
2022/06/14 09:11:42;;;;;;;;;;;;;;;22.33;61.25;100487.63;5054746;28;1099;-43
2022/06/14 09:14:25;;;;;;;;;;;;;;;25.38;50.02;100506.22;5017011;28;1255;-43
2022/06/14 09:17:00;;;;;;;;;;;;;;;22.34;57.06;100513.41;5054818;28;1255;-43
2022/06/14 09:19:25;;;;;;;;;;;;;;;;;;5055998;28;1092;-42
2022/06/14 09:21:50;;;;;;;;;;;;;;;21.33;60.48;100489.41;5056173;28;1205;-44
2022/06/14 09:24:34;;;;;;;;;;;;;;;23.28;58.04;100489.59;5055981;28;986;-43
2022/06/14 09:27:04;;;;;;;;;;;;;;;23.84;52.64;100489.91;5056226;28;958;-44
2022/06/14 09:29:39;;;;;;;;;;;;;;;21.70;59.11;100489.44;5055738;28;1298;-44
2022/06/14 09:32:19;;;;;;;;;;;;;;;23.51;57.37;100494.38;5055863;28;965;-44
2022/06/14 09:34:44;;;;;;;;;;;;;;;23.73;52.68;100493.78;5038093;28;1010;-43
2022/06/14 09:37:33;;;;;;;;;;;;;;;21.87;58.20;100502.00;5054473;28;1898;-40
2022/06/14 09:40:07;;;;;;;;;;;;;;;24.72;52.51;100488.50;5017663;28;1153;-43
2022/06/14 09:42:35;;;;;;;;;;;;;;;22.93;55.44;100495.03;5055245;28;1172;-42
2022/06/14 09:45:16;;;;;;;;;;;;;;;21.53;59.64;100497.28;5052529;28;1219;-43
2022/06/14 09:48:00;;;;;;;;;;;;;;;22.55;61.04;100488.09;5055362;28;1283;-43
2022/06/14 09:50:30;;;;;;;;;;;;;;;24.78;51.69;100487.78;5055621;28;1112;-43
2022/06/14 09:53:03;;;;;;;;;;;;;;;21.91;58.60;100491.81;5055744;28;1073;-43
2022/06/14 09:55:29;;;;;;;;;;;;;;;22.78;59.76;100494.78;5037792;28;1010;-42
2022/06/14 09:58:04;;;;;;;;;;;;;;;25.19;51.21;100486.78;5055319;28;1964;-43
2022/06/14 10:00:41;;;;;;;;;;;;;;;21.87;58.82;100487.78;5053175;28;1172;-43
2022/06/14 10:03:25;;;;;;;;;;;;;;;21.98;64.08;100487.53;5055203;28;1051;-44
2022/06/14 10:05:53;;;;;;;;;;;;;;;25.00;51.63;100489.91;5054468;28;1227;-44
2022/06/14 10:08:31;;;;;;;;;;;;;;;22.08;58.19;100486.59;5055647;28;1030;-43
2022/06/14 10:11:01;;;;;;;;;;;;;;;21.19;60.72;100480.03;5055931;28;1064;-43
2022/06/14 10:13:27;;;;;;;;;;;;;;;23.61;56.27;100487.03;5055707;28;1541;-44
2022/06/14 10:15:54;;;;;;;;;;;;;;;23.44;54.32;100480.81;5055156;28;986;-43
2022/06/14 10:18:34;;;;;;;;;;;;;;;21.57;59.54;100476.44;5035610;28;1898;-43
2022/06/14 10:21:13;;;;;;;;;;;;;;;22.89;59.24;100477.59;5037951;28;986;-43
2022/06/14 10:23:59;;;;;;;;;;;;;;;24.05;52.45;100472.47;5035721;28;1030;-43
2022/06/14 10:29:21;;;;;;;;;;;;;;;23.20;58.07;100469.81;5054732;28;835;-43
2022/06/14 10:32:01;;;;;;;;;;;;;;;23.75;52.91;100463.22;5059444;28;1092;-43
2022/06/14 10:34:27;;;;;;;;;;;;;;;21.49;59.79;100459.28;5041324;28;970;-43
2022/06/14 10:36:55;;;;;;;;;;;;;;;22.90;59.15;100469.38;5058928;28;1025;-43
2022/06/14 10:39:34;;;;;;;;;;;;;;;24.42;52.04;100454.09;5059506;28;1897;-43
2022/06/14 10:41:59;;;;;;;;;;;;;;;21.59;59.71;100447.66;5050297;28;860;-43
2022/06/14 10:44:27;;;;;;;;;;;;;;;22.20;62.92;100452.38;5058668;28;1061;-43
2022/06/14 10:46:57;;;;;;;;;;;;;;;24.98;52.21;100448.88;5037671;28;1237;-43
2022/06/14 10:49:41;;;;;;;;;;;;;;;21.88;58.79;100441.25;5041146;28;1057;-43
2022/06/14 10:52:15;;;;;;;;;;;;;;;22.63;60.86;100441.75;5059485;28;1033;-43
2022/06/14 10:54:47;;;;;;;;;;;;;;;24.99;51.97;100440.63;5057823;28;1203;-43
2022/06/14 10:57:37;;;;;;;;;;;;;;;21.81;59.12;100438.34;5040155;28;1906;-43
2022/06/14 11:00:38;;;;;;;;;;;;;;;22.74;60.32;100429.91;5057819;28;1049;-44
2022/06/14 11:03:16;;;;;;;;;;;;;;;23.57;54.21;100432.81;4988834;28;1100;-44
2022/06/14 11:05:59;;;;;;;;;;;;;;;21.52;59.79;100418.00;5033496;28;1006;-43
2022/06/14 11:08:51;;;;;;;;;;;;;;;22.81;59.70;100425.59;5058774;28;1028;-44
2022/06/14 11:11:49;;;;;;;;;;;;;;;23.54;53.59;100421.59;5050657;28;1268;-43
2022/06/14 11:14:20;;;;;;;;;;;;;;;21.40;60.29;100414.72;5022037;28;1745;-44
2022/06/14 11:17:04;;;;;;;;;;;;;;;22.60;61.00;100424.16;5052176;28;993;-44
2022/06/14 11:19:44;;;;;;;;;;;;;;;24.39;51.86;100415.97;5057672;28;1235;-43
2022/06/14 11:22:21;;;;;;;;;;;;;;;21.59;59.58;100411.03;5040905;28;1073;-43
2022/06/14 11:24:58;;;;;;;;;;;;;;;22.20;63.05;100413.03;5057568;28;1286;-43
2022/06/14 11:27:26;;;;;;;;;;;;;;;25.04;51.93;100408.66;5058606;28;1037;-44
2022/06/14 11:30:10;;;;;;;;;;;;;;;21.82;59.38;100405.22;5051435;28;847;-43
2022/06/14 11:32:57;;;;;;;;;;;;;;;23.25;58.49;100410.28;5053127;28;1017;-44
2022/06/14 11:35:31;;;;;;;;;;;;;;;23.45;54.79;100400.09;5039859;28;1076;-43
2022/06/14 11:38:00;;;;;;;;;;;;;;;21.57;60.31;100391.59;5057761;28;1943;-43
2022/06/14 11:40:31;;;;;;;;;;;;;;;21.64;65.03;100386.47;5057649;28;1041;-43
2022/06/14 11:42:57;;;;;;;;;;;;;;;24.72;53.26;100374.66;5058573;28;955;-44
2022/06/14 11:45:31;;;;;;;;;;;;;;;22.29;58.04;100383.59;5055911;28;885;-43
2022/06/14 11:48:09;;;;;;;;;;;;;;;21.16;61.44;100368.84;5057549;28;1194;-44
2022/06/14 11:50:50;;;;;;;;;;;;;;;23.27;58.09;100369.84;5035822;28;1049;-44
2022/06/14 11:53:27;;;;;;;;;;;;;;;23.26;55.13;100360.97;5057768;28;946;-44
2022/06/14 11:56:13;;;;;;;;;;;;;;;21.36;60.82;100368.69;5057505;28;1067;-44
2022/06/14 11:58:58;;;;;;;;;;;;;;;22.24;63.16;100365.31;5038339;28;1918;-44
2022/06/14 12:01:45;;;;;;;;;;;;;;;24.76;52.40;100375.97;5043022;28;1233;-44
2022/06/14 12:04:13;;;;;;;;;;;;;;;21.55;60.25;100371.34;5038657;28;1108;-44
2022/06/14 12:06:56;;;;;;;;;;;;;;;21.38;65.47;100376.56;5056707;28;1250;-44
2022/06/14 12:09:22;;;;;;;;;;;;;;;24.69;52.68;100374.00;5056821;28;1275;-44
2022/06/14 12:11:50;;;;;;;;;;;;;;;22.05;58.91;100382.44;5056090;28;970;-43
2022/06/14 12:14:25;;;;;;;;;;;;;;;21.08;62.02;100394.66;5055670;28;1120;-44
2022/06/14 12:16:55;;;;;;;;;;;;;;;22.11;64.39;100406.78;5056732;28;1085;-43
2022/06/14 12:19:21;;;;;;;;;;;;;;;25.12;52.06;100402.41;5037362;28;1961;-44
2022/06/14 12:21:47;;;;;;;;;;;;;;;21.98;58.56;100415.22;5038975;28;1117;-43
2022/06/14 12:24:16;;;;;;;;;;;;;;;21.39;60.45;100416.53;5057058;28;954;-43
2022/06/14 12:26:57;;;;;;;;;;;;;;;21.10;61.35;100412.25;5037544;28;1249;-44
2022/06/14 12:29:22;;;;;;;;;;;;;;;20.80;61.94;100408.88;5039559;28;1181;-45
2022/06/14 12:31:50;;;;;;;;;;;;;;;22.27;61.78;100407.88;5030086;28;1619;-44
2022/06/14 12:34:34;;;;;;;;;;;;;;;24.77;52.16;100408.09;5056095;28;1147;-44
2022/06/14 12:37:18;;;;;;;;;;;;;;;21.24;60.56;100393.97;5057284;28;1001;-44
2022/06/14 12:39:48;;;;;;;;;;;;;;;23.99;54.91;100400.56;5045799;28;996;-44
2022/06/14 12:42:23;;;;;;;;;;;;;;;22.66;56.40;100409.25;5038736;28;1082;-43
2022/06/14 12:44:56;;;;;;;;;;;;;;;21.32;62.59;100406.63;5034009;28;988;-45
2022/06/14 12:47:30;;;;;;;;;;;;;;;24.30;54.09;100399.03;5037862;28;1176;-44
2022/06/14 12:49:56;;;;;;;;;;;;;;;22.48;56.94;100396.78;5050188;28;1042;-44
2022/06/14 12:52:24;;;;;;;;;;;;;;;21.47;62.55;100382.84;5036982;28;1080;-44
2022/06/14 12:54:53;;;;;;;;;;;;;;;24.36;53.97;100384.88;5034506;28;1360;-43
2022/06/14 12:57:18;;;;;;;;;;;;;;;22.75;56.04;100384.16;5054902;28;1910;-44
2022/06/14 12:59:43;;;;;;;;;;;;;;;22.24;63.78;100394.78;5052235;28;1360;-44
2022/06/14 13:02:09;;;;;;;;;;;;;;;25.05;51.98;100396.03;5046130;28;859;-43
2022/06/14 13:04:36;;;;;;;;;;;;;;;22.35;57.58;100389.16;5049333;28;986;-43
2022/06/14 13:07:28;;;;;;;;;;;;;;;23.14;59.66;100392.63;5051744;28;1116;-43
2022/06/14 13:09:53;;;;;;;;;;;;;;;24.07;50.75;100379.06;5017925;28;1181;-43
2022/06/14 13:12:36;;;;;;;;;;;;;;;23.24;57.69;100379.06;5055124;28;1136;-44
2022/06/14 13:15:11;;;;;;;;;;;;;;;25.30;47.95;100372.50;5047697;28;838;-44
2022/06/14 13:17:52;;;;;;;;;;;;;;;22.29;59.91;100379.06;5051845;28;1898;-44
2022/06/14 13:20:31;;;;;;;;;;;;;;;25.29;49.53;100368.09;5055277;28;1119;-44
2022/06/14 13:23:15;;;;;;;;;;;;;;;22.19;56.35;100364.97;5055516;28;1045;-44
2022/06/14 13:25:49;;;;;;;;;;;;;;;24.45;52.19;100365.06;5048838;28;986;-43